sensor_id;sensor_type;location;lat;lon;timestamp;P1;durP1;ratioP1;P2;durP2;ratioP2
30062;SDS011;16889;67.864;24.990;2022-12-11T00:04:35;12.07;;;3.80;;
30062;SDS011;16889;67.864;24.990;2022-12-11T00:09:21;9.83;;;3.87;;
30062;SDS011;16889;67.864;24.990;2022-12-11T00:14:07;11.27;;;4.33;;
30062;SDS011;16889;67.864;24.990;2022-12-11T00:18:53;9.27;;;3.63;;
30062;SDS011;16889;67.864;24.990;2022-12-11T00:23:39;11.48;;;3.83;;
30062;SDS011;16889;67.864;24.990;2022-12-11T00:28:25;10.77;;;3.67;;
30062;SDS011;16889;67.864;24.990;2022-12-11T00:33:12;10.55;;;4.32;;
30062;SDS011;16889;67.864;24.990;2022-12-11T00:37:59;12.20;;;5.00;;
30062;SDS011;16889;67.864;24.990;2022-12-11T00:42:45;13.30;;;4.23;;
30062;SDS011;16889;67.864;24.990;2022-12-11T00:47:31;9.50;;;3.85;;
30062;SDS011;16889;67.864;24.990;2022-12-11T00:52:17;13.13;;;3.87;;
30062;SDS011;16889;67.864;24.990;2022-12-11T00:57:03;10.10;;;3.57;;
30062;SDS011;16889;67.864;24.990;2022-12-11T01:01:49;15.10;;;4.00;;
30062;SDS011;16889;67.864;24.990;2022-12-11T01:06:35;9.63;;;3.58;;
30062;SDS011;16889;67.864;24.990;2022-12-11T01:11:21;10.10;;;3.50;;
30062;SDS011;16889;67.864;24.990;2022-12-11T01:16:08;7.67;;;3.33;;
30062;SDS011;16889;67.864;24.990;2022-12-11T01:20:56;14.18;;;3.83;;
30062;SDS011;16889;67.864;24.990;2022-12-11T01:25:42;11.87;;;3.57;;
30062;SDS011;16889;67.864;24.990;2022-12-11T01:30:28;9.48;;;4.03;;
30062;SDS011;16889;67.864;24.990;2022-12-11T01:35:15;16.98;;;4.22;;
30062;SDS011;16889;67.864;24.990;2022-12-11T01:40:02;12.38;;;4.05;;
30062;SDS011;16889;67.864;24.990;2022-12-11T01:49:35;12.30;;;4.27;;
30062;SDS011;16889;67.864;24.990;2022-12-11T01:54:23;11.27;;;3.88;;
30062;SDS011;16889;67.864;24.990;2022-12-11T01:59:11;11.70;;;4.10;;
30062;SDS011;16889;67.864;24.990;2022-12-11T02:04:02;13.35;;;4.55;;
30062;SDS011;16889;67.864;24.990;2022-12-11T02:08:48;12.15;;;3.42;;
30062;SDS011;16889;67.864;24.990;2022-12-11T02:13:46;18.03;;;4.03;;
30062;SDS011;16889;67.864;24.990;2022-12-11T02:29:10;8.77;;;3.50;;
30062;SDS011;16889;67.864;24.990;2022-12-11T02:39:21;15.20;;;4.10;;
30062;SDS011;16889;67.864;24.990;2022-12-11T02:44:10;12.60;;;3.80;;
30062;SDS011;16889;67.864;24.990;2022-12-11T02:48:59;12.05;;;3.67;;
30062;SDS011;16889;67.864;24.990;2022-12-11T02:53:47;13.55;;;3.95;;
30062;SDS011;16889;67.864;24.990;2022-12-11T02:58:36;8.50;;;3.70;;
30062;SDS011;16889;67.864;24.990;2022-12-11T03:03:29;13.30;;;4.10;;
30062;SDS011;16889;67.864;24.990;2022-12-11T03:08:15;12.85;;;4.00;;
30062;SDS011;16889;67.864;24.990;2022-12-11T03:13:02;9.48;;;3.50;;
30062;SDS011;16889;67.864;24.990;2022-12-11T03:28:10;11.05;;;3.60;;
30062;SDS011;16889;67.864;24.990;2022-12-11T03:33:05;12.57;;;3.55;;
30062;SDS011;16889;67.864;24.990;2022-12-11T03:38:06;11.02;;;3.28;;
30062;SDS011;16889;67.864;24.990;2022-12-11T03:42:59;9.95;;;4.03;;
30062;SDS011;16889;67.864;24.990;2022-12-11T03:47:46;22.23;;;3.92;;
30062;SDS011;16889;67.864;24.990;2022-12-11T03:52:34;12.70;;;3.70;;
30062;SDS011;16889;67.864;24.990;2022-12-11T03:57:21;11.13;;;3.55;;
30062;SDS011;16889;67.864;24.990;2022-12-11T04:02:11;14.50;;;4.10;;
30062;SDS011;16889;67.864;24.990;2022-12-11T04:06:57;14.87;;;3.83;;
30062;SDS011;16889;67.864;24.990;2022-12-11T04:11:44;12.10;;;4.28;;
30062;SDS011;16889;67.864;24.990;2022-12-11T04:16:30;9.52;;;3.80;;
30062;SDS011;16889;67.864;24.990;2022-12-11T04:21:16;20.53;;;4.00;;
30062;SDS011;16889;67.864;24.990;2022-12-11T04:26:20;10.35;;;3.70;;
30062;SDS011;16889;67.864;24.990;2022-12-11T04:31:10;14.83;;;4.23;;
30062;SDS011;16889;67.864;24.990;2022-12-11T04:35:59;15.93;;;4.30;;
30062;SDS011;16889;67.864;24.990;2022-12-11T04:45:31;15.32;;;3.85;;
30062;SDS011;16889;67.864;24.990;2022-12-11T04:50:17;14.13;;;4.07;;
30062;SDS011;16889;67.864;24.990;2022-12-11T04:55:04;10.67;;;3.50;;
30062;SDS011;16889;67.864;24.990;2022-12-11T04:59:51;10.15;;;3.83;;
30062;SDS011;16889;67.864;24.990;2022-12-11T05:04:36;12.70;;;3.87;;
30062;SDS011;16889;67.864;24.990;2022-12-11T05:09:22;11.27;;;4.43;;
30062;SDS011;16889;67.864;24.990;2022-12-11T05:14:10;18.10;;;4.13;;
30062;SDS011;16889;67.864;24.990;2022-12-11T05:18:56;11.95;;;3.50;;
30062;SDS011;16889;67.864;24.990;2022-12-11T05:23:42;14.83;;;4.07;;
30062;SDS011;16889;67.864;24.990;2022-12-11T05:28:29;15.43;;;4.60;;
30062;SDS011;16889;67.864;24.990;2022-12-11T05:33:16;12.80;;;4.25;;
30062;SDS011;16889;67.864;24.990;2022-12-11T05:38:02;12.90;;;3.90;;
30062;SDS011;16889;67.864;24.990;2022-12-11T05:42:48;11.37;;;3.73;;
30062;SDS011;16889;67.864;24.990;2022-12-11T05:47:34;12.83;;;5.07;;
30062;SDS011;16889;67.864;24.990;2022-12-11T05:52:20;9.60;;;3.15;;
30062;SDS011;16889;67.864;24.990;2022-12-11T05:57:06;9.53;;;3.90;;
30062;SDS011;16889;67.864;24.990;2022-12-11T06:01:52;17.73;;;4.50;;
30062;SDS011;16889;67.864;24.990;2022-12-11T06:06:38;10.88;;;4.10;;
30062;SDS011;16889;67.864;24.990;2022-12-11T06:11:25;12.45;;;4.28;;
30062;SDS011;16889;67.864;24.990;2022-12-11T06:16:13;11.35;;;3.78;;
30062;SDS011;16889;67.864;24.990;2022-12-11T06:20:59;15.95;;;4.10;;
30062;SDS011;16889;67.864;24.990;2022-12-11T06:25:45;14.20;;;4.22;;
30062;SDS011;16889;67.864;24.990;2022-12-11T06:30:31;13.48;;;4.03;;
30062;SDS011;16889;67.864;24.990;2022-12-11T06:35:17;14.30;;;4.30;;
30062;SDS011;16889;67.864;24.990;2022-12-11T06:40:03;10.83;;;3.50;;
30062;SDS011;16889;67.864;24.990;2022-12-11T06:44:50;17.73;;;4.72;;
30062;SDS011;16889;67.864;24.990;2022-12-11T06:49:36;11.57;;;3.93;;
30062;SDS011;16889;67.864;24.990;2022-12-11T06:54:26;11.40;;;4.10;;
30062;SDS011;16889;67.864;24.990;2022-12-11T06:59:12;12.05;;;4.05;;
30062;SDS011;16889;67.864;24.990;2022-12-11T07:03:58;13.32;;;4.50;;
30062;SDS011;16889;67.864;24.990;2022-12-11T07:08:44;13.50;;;4.18;;
30062;SDS011;16889;67.864;24.990;2022-12-11T07:13:30;9.38;;;3.78;;
30062;SDS011;16889;67.864;24.990;2022-12-11T07:18:17;12.00;;;4.30;;
30062;SDS011;16889;67.864;24.990;2022-12-11T07:23:03;18.67;;;4.37;;
30062;SDS011;16889;67.864;24.990;2022-12-11T07:27:49;13.40;;;3.13;;
30062;SDS011;16889;67.864;24.990;2022-12-11T07:32:35;11.70;;;3.43;;
30062;SDS011;16889;67.864;24.990;2022-12-11T07:37:21;13.40;;;4.13;;
30062;SDS011;16889;67.864;24.990;2022-12-11T07:42:07;10.60;;;3.47;;
30062;SDS011;16889;67.864;24.990;2022-12-11T07:46:53;14.50;;;4.47;;
30062;SDS011;16889;67.864;24.990;2022-12-11T07:51:39;9.13;;;2.67;;
30062;SDS011;16889;67.864;24.990;2022-12-11T07:56:27;13.55;;;3.92;;
30062;SDS011;16889;67.864;24.990;2022-12-11T08:01:15;10.00;;;4.07;;
30062;SDS011;16889;67.864;24.990;2022-12-11T08:06:03;11.30;;;4.07;;
30062;SDS011;16889;67.864;24.990;2022-12-11T08:10:50;13.43;;;3.92;;
30062;SDS011;16889;67.864;24.990;2022-12-11T08:15:36;10.52;;;3.83;;
30062;SDS011;16889;67.864;24.990;2022-12-11T08:20:22;13.82;;;3.92;;
30062;SDS011;16889;67.864;24.990;2022-12-11T08:25:08;11.73;;;3.70;;
30062;SDS011;16889;67.864;24.990;2022-12-11T08:29:54;20.83;;;4.70;;
30062;SDS011;16889;67.864;24.990;2022-12-11T08:34:40;11.75;;;3.63;;
30062;SDS011;16889;67.864;24.990;2022-12-11T08:39:26;15.38;;;4.03;;
30062;SDS011;16889;67.864;24.990;2022-12-11T08:44:13;12.55;;;3.80;;
30062;SDS011;16889;67.864;24.990;2022-12-11T08:48:59;16.02;;;4.18;;
30062;SDS011;16889;67.864;24.990;2022-12-11T08:53:45;17.40;;;4.05;;
30062;SDS011;16889;67.864;24.990;2022-12-11T08:58:31;14.40;;;4.35;;
30062;SDS011;16889;67.864;24.990;2022-12-11T09:03:17;13.35;;;3.70;;
30062;SDS011;16889;67.864;24.990;2022-12-11T09:08:03;11.23;;;3.63;;
30062;SDS011;16889;67.864;24.990;2022-12-11T09:12:49;11.57;;;3.70;;
30062;SDS011;16889;67.864;24.990;2022-12-11T09:17:35;8.65;;;3.78;;
30062;SDS011;16889;67.864;24.990;2022-12-11T09:22:21;11.27;;;3.75;;
30062;SDS011;16889;67.864;24.990;2022-12-11T09:27:07;11.90;;;3.70;;
30062;SDS011;16889;67.864;24.990;2022-12-11T09:31:53;10.43;;;3.42;;
30062;SDS011;16889;67.864;24.990;2022-12-11T09:36:39;9.38;;;3.47;;
30062;SDS011;16889;67.864;24.990;2022-12-11T09:41:51;11.32;;;3.45;;
30062;SDS011;16889;67.864;24.990;2022-12-11T09:46:39;15.07;;;3.35;;
30062;SDS011;16889;67.864;24.990;2022-12-11T09:51:28;11.57;;;3.33;;
30062;SDS011;16889;67.864;24.990;2022-12-11T10:01:46;11.27;;;3.13;;
30062;SDS011;16889;67.864;24.990;2022-12-11T10:06:46;7.72;;;2.70;;
30062;SDS011;16889;67.864;24.990;2022-12-11T10:12:03;9.07;;;3.22;;
30062;SDS011;16889;67.864;24.990;2022-12-11T10:16:51;10.50;;;3.33;;
30062;SDS011;16889;67.864;24.990;2022-12-11T10:21:43;7.80;;;3.30;;
30062;SDS011;16889;67.864;24.990;2022-12-11T10:26:31;11.40;;;3.50;;
30062;SDS011;16889;67.864;24.990;2022-12-11T10:36:19;13.57;;;3.88;;
30062;SDS011;16889;67.864;24.990;2022-12-11T10:41:12;7.75;;;2.97;;
30062;SDS011;16889;67.864;24.990;2022-12-11T10:46:02;8.18;;;3.20;;
30062;SDS011;16889;67.864;24.990;2022-12-11T10:50:56;12.20;;;3.17;;
30062;SDS011;16889;67.864;24.990;2022-12-11T10:55:43;21.98;;;2.78;;
30062;SDS011;16889;67.864;24.990;2022-12-11T11:05:35;11.25;;;3.13;;
30062;SDS011;16889;67.864;24.990;2022-12-11T11:10:21;9.18;;;2.45;;
30062;SDS011;16889;67.864;24.990;2022-12-11T11:15:17;7.38;;;2.92;;
30062;SDS011;16889;67.864;24.990;2022-12-11T11:20:11;11.43;;;2.78;;
30062;SDS011;16889;67.864;24.990;2022-12-11T11:25:03;11.48;;;3.20;;
30062;SDS011;16889;67.864;24.990;2022-12-11T11:30:23;12.55;;;3.53;;
30062;SDS011;16889;67.864;24.990;2022-12-11T11:40:01;14.38;;;2.72;;
30062;SDS011;16889;67.864;24.990;2022-12-11T11:45:01;15.00;;;2.92;;
30062;SDS011;16889;67.864;24.990;2022-12-11T11:50:00;6.97;;;2.42;;
30062;SDS011;16889;67.864;24.990;2022-12-11T11:55:07;9.85;;;2.55;;
30062;SDS011;16889;67.864;24.990;2022-12-11T11:59:58;8.95;;;2.85;;
30062;SDS011;16889;67.864;24.990;2022-12-11T12:04:53;8.98;;;2.67;;
30062;SDS011;16889;67.864;24.990;2022-12-11T12:09:43;15.43;;;3.28;;
30062;SDS011;16889;67.864;24.990;2022-12-11T12:14:42;11.43;;;3.17;;
30062;SDS011;16889;67.864;24.990;2022-12-11T12:19:55;8.80;;;2.50;;
30062;SDS011;16889;67.864;24.990;2022-12-11T12:30:25;10.68;;;2.85;;
30062;SDS011;16889;67.864;24.990;2022-12-11T12:45:35;16.40;;;3.78;;
30062;SDS011;16889;67.864;24.990;2022-12-11T12:50:29;10.02;;;2.95;;
30062;SDS011;16889;67.864;24.990;2022-12-11T12:55:30;10.75;;;3.30;;
30062;SDS011;16889;67.864;24.990;2022-12-11T13:05:20;8.45;;;3.03;;
30062;SDS011;16889;67.864;24.990;2022-12-11T13:30:07;19.75;;;4.93;;
30062;SDS011;16889;67.864;24.990;2022-12-11T13:35:14;13.88;;;3.72;;
30062;SDS011;16889;67.864;24.990;2022-12-11T13:40:02;11.20;;;3.90;;
30062;SDS011;16889;67.864;24.990;2022-12-11T13:44:53;18.50;;;4.22;;
30062;SDS011;16889;67.864;24.990;2022-12-11T13:49:40;19.98;;;4.38;;
30062;SDS011;16889;67.864;24.990;2022-12-11T13:54:29;19.15;;;4.90;;
30062;SDS011;16889;67.864;24.990;2022-12-11T13:59:23;20.30;;;4.88;;
30062;SDS011;16889;67.864;24.990;2022-12-11T14:04:14;14.38;;;4.38;;
30062;SDS011;16889;67.864;24.990;2022-12-11T14:09:04;16.88;;;4.90;;
30062;SDS011;16889;67.864;24.990;2022-12-11T14:13:52;17.90;;;4.78;;
30062;SDS011;16889;67.864;24.990;2022-12-11T14:18:41;25.90;;;4.80;;
30062;SDS011;16889;67.864;24.990;2022-12-11T14:23:28;18.17;;;4.45;;
30062;SDS011;16889;67.864;24.990;2022-12-11T14:28:16;17.25;;;4.20;;
30062;SDS011;16889;67.864;24.990;2022-12-11T14:33:02;12.52;;;4.15;;
30062;SDS011;16889;67.864;24.990;2022-12-11T14:37:49;35.33;;;8.98;;
30062;SDS011;16889;67.864;24.990;2022-12-11T14:42:40;17.45;;;4.97;;
30062;SDS011;16889;67.864;24.990;2022-12-11T14:47:31;22.10;;;4.90;;
30062;SDS011;16889;67.864;24.990;2022-12-11T14:52:32;16.05;;;4.55;;
30062;SDS011;16889;67.864;24.990;2022-12-11T14:57:25;16.67;;;3.92;;
30062;SDS011;16889;67.864;24.990;2022-12-11T15:02:29;20.42;;;4.07;;
30062;SDS011;16889;67.864;24.990;2022-12-11T15:07:18;17.48;;;4.50;;
30062;SDS011;16889;67.864;24.990;2022-12-11T15:12:10;33.20;;;9.50;;
30062;SDS011;16889;67.864;24.990;2022-12-11T15:17:03;32.58;;;4.97;;
30062;SDS011;16889;67.864;24.990;2022-12-11T15:22:05;16.90;;;3.97;;
30062;SDS011;16889;67.864;24.990;2022-12-11T15:26:55;20.65;;;4.75;;
30062;SDS011;16889;67.864;24.990;2022-12-11T15:31:43;18.15;;;4.95;;
30062;SDS011;16889;67.864;24.990;2022-12-11T15:41:16;27.35;;;4.50;;
30062;SDS011;16889;67.864;24.990;2022-12-11T15:46:08;19.52;;;4.13;;
30062;SDS011;16889;67.864;24.990;2022-12-11T15:50:54;20.20;;;4.97;;
30062;SDS011;16889;67.864;24.990;2022-12-11T15:55:40;23.63;;;4.28;;
30062;SDS011;16889;67.864;24.990;2022-12-11T16:00:26;25.27;;;4.35;;
30062;SDS011;16889;67.864;24.990;2022-12-11T16:05:13;15.00;;;3.58;;
30062;SDS011;16889;67.864;24.990;2022-12-11T16:09:59;12.88;;;3.75;;
30062;SDS011;16889;67.864;24.990;2022-12-11T16:14:45;15.52;;;4.10;;
30062;SDS011;16889;67.864;24.990;2022-12-11T16:19:31;12.98;;;3.85;;
30062;SDS011;16889;67.864;24.990;2022-12-11T16:29:02;13.93;;;4.03;;
30062;SDS011;16889;67.864;24.990;2022-12-11T16:38:34;16.17;;;2.87;;
30062;SDS011;16889;67.864;24.990;2022-12-11T16:48:06;18.13;;;4.37;;
30062;SDS011;16889;67.864;24.990;2022-12-11T16:52:52;16.90;;;3.38;;
30062;SDS011;16889;67.864;24.990;2022-12-11T16:57:38;10.55;;;3.42;;
30062;SDS011;16889;67.864;24.990;2022-12-11T17:02:26;14.10;;;3.30;;
30062;SDS011;16889;67.864;24.990;2022-12-11T17:07:12;14.75;;;3.30;;
30062;SDS011;16889;67.864;24.990;2022-12-11T17:11:58;10.00;;;2.80;;
30062;SDS011;16889;67.864;24.990;2022-12-11T17:16:44;8.13;;;2.60;;
30062;SDS011;16889;67.864;24.990;2022-12-11T17:21:30;12.35;;;3.25;;
30062;SDS011;16889;67.864;24.990;2022-12-11T17:26:16;13.50;;;2.80;;
30062;SDS011;16889;67.864;24.990;2022-12-11T17:31:03;12.55;;;3.05;;
30062;SDS011;16889;67.864;24.990;2022-12-11T17:35:50;12.15;;;2.92;;
30062;SDS011;16889;67.864;24.990;2022-12-11T17:40:39;13.82;;;2.28;;
30062;SDS011;16889;67.864;24.990;2022-12-11T17:45:26;16.55;;;3.10;;
30062;SDS011;16889;67.864;24.990;2022-12-11T17:50:12;10.50;;;2.83;;
30062;SDS011;16889;67.864;24.990;2022-12-11T17:54:58;9.40;;;2.88;;
30062;SDS011;16889;67.864;24.990;2022-12-11T17:59:44;9.43;;;2.60;;
30062;SDS011;16889;67.864;24.990;2022-12-11T18:04:30;10.32;;;2.30;;
30062;SDS011;16889;67.864;24.990;2022-12-11T18:09:16;8.20;;;2.28;;
30062;SDS011;16889;67.864;24.990;2022-12-11T18:14:02;12.30;;;2.50;;
30062;SDS011;16889;67.864;24.990;2022-12-11T18:18:48;8.77;;;2.72;;
30062;SDS011;16889;67.864;24.990;2022-12-11T18:23:35;7.20;;;2.58;;
30062;SDS011;16889;67.864;24.990;2022-12-11T18:28:21;6.63;;;2.38;;
30062;SDS011;16889;67.864;24.990;2022-12-11T18:33:07;10.50;;;2.10;;
30062;SDS011;16889;67.864;24.990;2022-12-11T18:37:53;8.70;;;1.80;;
30062;SDS011;16889;67.864;24.990;2022-12-11T18:42:39;9.57;;;2.38;;
30062;SDS011;16889;67.864;24.990;2022-12-11T18:47:25;9.95;;;2.55;;
30062;SDS011;16889;67.864;24.990;2022-12-11T18:52:11;6.53;;;2.30;;
30062;SDS011;16889;67.864;24.990;2022-12-11T18:56:57;6.00;;;2.08;;
30062;SDS011;16889;67.864;24.990;2022-12-11T19:01:43;7.90;;;2.30;;
30062;SDS011;16889;67.864;24.990;2022-12-11T19:06:29;10.98;;;1.98;;
30062;SDS011;16889;67.864;24.990;2022-12-11T19:11:18;12.52;;;2.88;;
30062;SDS011;16889;67.864;24.990;2022-12-11T19:16:06;5.55;;;1.92;;
30062;SDS011;16889;67.864;24.990;2022-12-11T19:20:52;11.55;;;1.92;;
30062;SDS011;16889;67.864;24.990;2022-12-11T19:25:42;8.63;;;1.80;;
30062;SDS011;16889;67.864;24.990;2022-12-11T19:30:30;5.30;;;1.73;;
30062;SDS011;16889;67.864;24.990;2022-12-11T19:35:22;5.28;;;1.90;;
30062;SDS011;16889;67.864;24.990;2022-12-11T19:40:14;10.23;;;2.20;;
30062;SDS011;16889;67.864;24.990;2022-12-11T19:45:01;10.95;;;2.25;;
30062;SDS011;16889;67.864;24.990;2022-12-11T19:49:47;9.40;;;2.25;;
30062;SDS011;16889;67.864;24.990;2022-12-11T19:54:33;10.98;;;2.13;;
30062;SDS011;16889;67.864;24.990;2022-12-11T19:59:19;4.22;;;1.85;;
30062;SDS011;16889;67.864;24.990;2022-12-11T20:04:06;13.57;;;2.00;;
30062;SDS011;16889;67.864;24.990;2022-12-11T20:08:55;5.82;;;1.67;;
30062;SDS011;16889;67.864;24.990;2022-12-11T20:13:41;4.43;;;1.60;;
30062;SDS011;16889;67.864;24.990;2022-12-11T20:18:29;8.95;;;1.40;;
30062;SDS011;16889;67.864;24.990;2022-12-11T20:23:15;5.63;;;1.88;;
30062;SDS011;16889;67.864;24.990;2022-12-11T20:28:02;5.53;;;1.90;;
30062;SDS011;16889;67.864;24.990;2022-12-11T20:32:48;3.97;;;1.40;;
30062;SDS011;16889;67.864;24.990;2022-12-11T20:37:35;8.23;;;2.20;;
30062;SDS011;16889;67.864;24.990;2022-12-11T20:42:21;5.38;;;1.25;;
30062;SDS011;16889;67.864;24.990;2022-12-11T20:47:07;10.07;;;2.60;;
30062;SDS011;16889;67.864;24.990;2022-12-11T20:51:53;6.45;;;2.03;;
30062;SDS011;16889;67.864;24.990;2022-12-11T20:56:39;6.88;;;1.63;;
30062;SDS011;16889;67.864;24.990;2022-12-11T21:01:26;3.95;;;1.45;;
30062;SDS011;16889;67.864;24.990;2022-12-11T21:06:18;6.53;;;2.13;;
30062;SDS011;16889;67.864;24.990;2022-12-11T21:11:09;3.03;;;1.30;;
30062;SDS011;16889;67.864;24.990;2022-12-11T21:15:55;7.63;;;1.60;;
30062;SDS011;16889;67.864;24.990;2022-12-11T21:20:47;7.40;;;1.50;;
30062;SDS011;16889;67.864;24.990;2022-12-11T21:25:36;4.40;;;1.77;;
30062;SDS011;16889;67.864;24.990;2022-12-11T21:30:24;4.70;;;1.58;;
30062;SDS011;16889;67.864;24.990;2022-12-11T21:35:10;5.80;;;1.10;;
30062;SDS011;16889;67.864;24.990;2022-12-11T21:39:57;5.57;;;1.63;;
30062;SDS011;16889;67.864;24.990;2022-12-11T21:44:43;7.25;;;1.60;;
30062;SDS011;16889;67.864;24.990;2022-12-11T21:49:29;5.00;;;1.70;;
30062;SDS011;16889;67.864;24.990;2022-12-11T21:54:16;4.53;;;1.55;;
30062;SDS011;16889;67.864;24.990;2022-12-11T21:59:03;3.65;;;1.70;;
30062;SDS011;16889;67.864;24.990;2022-12-11T22:03:51;10.90;;;1.63;;
30062;SDS011;16889;67.864;24.990;2022-12-11T22:08:37;5.63;;;2.03;;
30062;SDS011;16889;67.864;24.990;2022-12-11T22:13:23;5.05;;;1.50;;
30062;SDS011;16889;67.864;24.990;2022-12-11T22:18:09;7.43;;;1.80;;
30062;SDS011;16889;67.864;24.990;2022-12-11T22:22:55;12.40;;;1.77;;
30062;SDS011;16889;67.864;24.990;2022-12-11T22:27:42;8.00;;;2.45;;
30062;SDS011;16889;67.864;24.990;2022-12-11T22:32:27;6.40;;;1.80;;
30062;SDS011;16889;67.864;24.990;2022-12-11T22:37:13;2.35;;;1.67;;
30062;SDS011;16889;67.864;24.990;2022-12-11T22:42:00;11.90;;;2.28;;
30062;SDS011;16889;67.864;24.990;2022-12-11T22:46:46;5.70;;;1.33;;
